sensor_id;sensor_type;location;lat;lon;timestamp;temperature;humidity
35495;DHT22;75532;49.300;6.846;2024-03-08T00:00:29;21.40;47.20
35495;DHT22;75532;49.300;6.846;2024-03-08T00:03:35;21.40;47.10
35495;DHT22;75532;49.300;6.846;2024-03-08T00:06:36;21.40;47.30
35495;DHT22;75532;49.300;6.846;2024-03-08T00:09:36;21.40;47.10
35495;DHT22;75532;49.300;6.846;2024-03-08T00:12:38;21.40;46.60
35495;DHT22;75532;49.300;6.846;2024-03-08T00:15:39;21.40;46.60
35495;DHT22;75532;49.300;6.846;2024-03-08T00:18:41;21.40;46.50
35495;DHT22;75532;49.300;6.846;2024-03-08T00:21:42;21.30;46.30
35495;DHT22;75532;49.300;6.846;2024-03-08T00:24:43;21.40;46.40
35495;DHT22;75532;49.300;6.846;2024-03-08T00:27:44;21.40;46.40
35495;DHT22;75532;49.300;6.846;2024-03-08T00:30:44;21.40;46.30
35495;DHT22;75532;49.300;6.846;2024-03-08T00:33:46;21.40;46.30
35495;DHT22;75532;49.300;6.846;2024-03-08T00:36:47;21.40;46.30
35495;DHT22;75532;49.300;6.846;2024-03-08T00:39:52;21.30;46.20
35495;DHT22;75532;49.300;6.846;2024-03-08T00:42:53;21.30;46.30
35495;DHT22;75532;49.300;6.846;2024-03-08T00:45:53;21.30;46.30
35495;DHT22;75532;49.300;6.846;2024-03-08T00:48:54;21.30;46.20
35495;DHT22;75532;49.300;6.846;2024-03-08T00:51:55;21.30;46.20
35495;DHT22;75532;49.300;6.846;2024-03-08T00:54:56;21.30;46.30
35495;DHT22;75532;49.300;6.846;2024-03-08T00:57:57;21.30;46.30
35495;DHT22;75532;49.300;6.846;2024-03-08T01:00:57;21.30;46.40
35495;DHT22;75532;49.300;6.846;2024-03-08T01:03:59;21.30;46.30
35495;DHT22;75532;49.300;6.846;2024-03-08T01:07:00;21.30;46.40
35495;DHT22;75532;49.300;6.846;2024-03-08T01:10:02;21.30;46.60
35495;DHT22;75532;49.300;6.846;2024-03-08T01:13:03;21.30;46.80
35495;DHT22;75532;49.300;6.846;2024-03-08T01:16:04;21.30;47.00
35495;DHT22;75532;49.300;6.846;2024-03-08T01:19:05;21.30;46.90
35495;DHT22;75532;49.300;6.846;2024-03-08T01:22:05;21.30;46.90
35495;DHT22;75532;49.300;6.846;2024-03-08T01:25:06;21.30;47.00
35495;DHT22;75532;49.300;6.846;2024-03-08T01:28:08;21.30;46.90
35495;DHT22;75532;49.300;6.846;2024-03-08T01:31:09;21.30;47.00
35495;DHT22;75532;49.300;6.846;2024-03-08T01:34:10;21.30;46.80
35495;DHT22;75532;49.300;6.846;2024-03-08T01:37:11;21.30;46.80
35495;DHT22;75532;49.300;6.846;2024-03-08T01:40:11;21.30;46.80
35495;DHT22;75532;49.300;6.846;2024-03-08T01:43:30;21.30;46.80
35495;DHT22;75532;49.300;6.846;2024-03-08T01:46:31;21.30;46.80
35495;DHT22;75532;49.300;6.846;2024-03-08T01:49:32;21.30;46.80
35495;DHT22;75532;49.300;6.846;2024-03-08T01:52:34;21.30;46.70
35495;DHT22;75532;49.300;6.846;2024-03-08T01:55:35;21.30;46.70
35495;DHT22;75532;49.300;6.846;2024-03-08T01:58:36;21.30;47.10
35495;DHT22;75532;49.300;6.846;2024-03-08T02:01:37;21.30;46.40
35495;DHT22;75532;49.300;6.846;2024-03-08T02:04:38;21.30;46.20
35495;DHT22;75532;49.300;6.846;2024-03-08T02:07:41;21.30;46.20
35495;DHT22;75532;49.300;6.846;2024-03-08T02:10:44;21.30;46.10
35495;DHT22;75532;49.300;6.846;2024-03-08T02:13:45;21.30;46.10
35495;DHT22;75532;49.300;6.846;2024-03-08T02:16:45;21.30;46.00
35495;DHT22;75532;49.300;6.846;2024-03-08T02:19:46;21.30;46.00
35495;DHT22;75532;49.300;6.846;2024-03-08T02:22:47;21.30;46.60
35495;DHT22;75532;49.300;6.846;2024-03-08T02:25:47;21.30;46.10
35495;DHT22;75532;49.300;6.846;2024-03-08T02:28:48;21.30;46.10
35495;DHT22;75532;49.300;6.846;2024-03-08T02:31:51;21.30;46.20
35495;DHT22;75532;49.300;6.846;2024-03-08T02:34:56;21.30;46.20
35495;DHT22;75532;49.300;6.846;2024-03-08T02:37:57;21.20;46.20
35495;DHT22;75532;49.300;6.846;2024-03-08T02:40:58;21.20;46.30
35495;DHT22;75532;49.300;6.846;2024-03-08T02:43:59;21.20;46.30
35495;DHT22;75532;49.300;6.846;2024-03-08T02:47:00;21.20;46.20
35495;DHT22;75532;49.300;6.846;2024-03-08T02:50:01;21.20;46.20
35495;DHT22;75532;49.300;6.846;2024-03-08T02:53:01;21.20;46.30
35495;DHT22;75532;49.300;6.846;2024-03-08T02:56:02;21.20;46.50
35495;DHT22;75532;49.300;6.846;2024-03-08T02:59:03;21.20;46.90
35495;DHT22;75532;49.300;6.846;2024-03-08T03:02:03;21.20;47.50
35495;DHT22;75532;49.300;6.846;2024-03-08T03:05:05;21.30;46.90
35495;DHT22;75532;49.300;6.846;2024-03-08T03:08:06;21.30;47.00
35495;DHT22;75532;49.300;6.846;2024-03-08T03:11:09;21.30;47.20
35495;DHT22;75532;49.300;6.846;2024-03-08T03:14:09;21.20;46.90
35495;DHT22;75532;49.300;6.846;2024-03-08T03:17:10;21.20;47.00
35495;DHT22;75532;49.300;6.846;2024-03-08T03:20:10;21.20;47.00
35495;DHT22;75532;49.300;6.846;2024-03-08T03:23:14;21.20;46.80
35495;DHT22;75532;49.300;6.846;2024-03-08T03:26:15;21.20;46.80
35495;DHT22;75532;49.300;6.846;2024-03-08T03:29:17;21.20;46.90
35495;DHT22;75532;49.300;6.846;2024-03-08T03:32:18;21.20;46.90
35495;DHT22;75532;49.300;6.846;2024-03-08T03:35:19;21.20;47.00
35495;DHT22;75532;49.300;6.846;2024-03-08T03:38:21;21.20;47.20
35495;DHT22;75532;49.300;6.846;2024-03-08T03:41:23;21.20;46.80
35495;DHT22;75532;49.300;6.846;2024-03-08T03:44:24;21.20;46.30
35495;DHT22;75532;49.300;6.846;2024-03-08T03:47:25;21.20;46.10
35495;DHT22;75532;49.300;6.846;2024-03-08T03:50:27;21.20;46.10
35495;DHT22;75532;49.300;6.846;2024-03-08T03:53:28;21.20;46.00
35495;DHT22;75532;49.300;6.846;2024-03-08T03:56:28;21.20;46.00
35495;DHT22;75532;49.300;6.846;2024-03-08T03:59:29;21.20;46.00
35495;DHT22;75532;49.300;6.846;2024-03-08T04:02:30;21.20;45.90
35495;DHT22;75532;49.300;6.846;2024-03-08T04:05:30;21.20;46.00
35495;DHT22;75532;49.300;6.846;2024-03-08T04:08:32;21.20;46.20
35495;DHT22;75532;49.300;6.846;2024-03-08T04:11:34;21.20;46.10
35495;DHT22;75532;49.300;6.846;2024-03-08T04:14:35;21.20;46.00
35495;DHT22;75532;49.300;6.846;2024-03-08T04:17:36;21.20;46.30
35495;DHT22;75532;49.300;6.846;2024-03-08T04:20:37;21.20;46.50
35495;DHT22;75532;49.300;6.846;2024-03-08T04:23:38;21.20;46.80
35495;DHT22;75532;49.300;6.846;2024-03-08T04:26:38;21.20;47.00
35495;DHT22;75532;49.300;6.846;2024-03-08T04:29:39;21.20;47.00
35495;DHT22;75532;49.300;6.846;2024-03-08T04:32:39;21.20;47.10
35495;DHT22;75532;49.300;6.846;2024-03-08T04:35:41;21.20;46.90
35495;DHT22;75532;49.300;6.846;2024-03-08T04:38:42;21.20;46.70
35495;DHT22;75532;49.300;6.846;2024-03-08T04:41:43;21.20;47.00
35495;DHT22;75532;49.300;6.846;2024-03-08T04:44:46;21.20;47.40
35495;DHT22;75532;49.300;6.846;2024-03-08T04:47:50;21.20;47.30
35495;DHT22;75532;49.300;6.846;2024-03-08T04:50:53;21.20;46.40
35495;DHT22;75532;49.300;6.846;2024-03-08T04:53:54;21.20;46.00
35495;DHT22;75532;49.300;6.846;2024-03-08T04:56:54;21.20;45.80
35495;DHT22;75532;49.300;6.846;2024-03-08T04:59:55;21.20;45.70
35495;DHT22;75532;49.300;6.846;2024-03-08T05:02:55;21.20;45.60
35495;DHT22;75532;49.300;6.846;2024-03-08T05:05:56;21.20;45.70
35495;DHT22;75532;49.300;6.846;2024-03-08T05:08:56;21.20;45.60
35495;DHT22;75532;49.300;6.846;2024-03-08T05:11:57;21.30;45.60
35495;DHT22;75532;49.300;6.846;2024-03-08T05:15:00;21.30;45.70
35495;DHT22;75532;49.300;6.846;2024-03-08T05:18:00;21.30;45.50
35495;DHT22;75532;49.300;6.846;2024-03-08T05:21:01;21.20;45.60
35495;DHT22;75532;49.300;6.846;2024-03-08T05:24:04;21.20;45.70
35495;DHT22;75532;49.300;6.846;2024-03-08T05:27:05;21.20;46.80
35495;DHT22;75532;49.300;6.846;2024-03-08T05:30:06;21.20;46.50
35495;DHT22;75532;49.300;6.846;2024-03-08T05:33:07;21.20;46.80
35495;DHT22;75532;49.300;6.846;2024-03-08T05:36:11;21.20;48.40
35495;DHT22;75532;49.300;6.846;2024-03-08T05:39:13;21.30;50.20
35495;DHT22;75532;49.300;6.846;2024-03-08T05:42:13;21.30;48.70
35495;DHT22;75532;49.300;6.846;2024-03-08T05:45:14;21.30;50.10
35495;DHT22;75532;49.300;6.846;2024-03-08T05:48:15;21.30;49.90
35495;DHT22;75532;49.300;6.846;2024-03-08T05:51:16;21.30;49.30
35495;DHT22;75532;49.300;6.846;2024-03-08T05:54:16;21.30;49.70
35495;DHT22;75532;49.300;6.846;2024-03-08T05:57:17;21.30;49.20
35495;DHT22;75532;49.300;6.846;2024-03-08T06:00:18;21.30;48.90
35495;DHT22;75532;49.300;6.846;2024-03-08T06:03:19;21.30;50.00
35495;DHT22;75532;49.300;6.846;2024-03-08T06:06:24;21.00;46.00
35495;DHT22;75532;49.300;6.846;2024-03-08T06:09:25;20.90;46.00
35495;DHT22;75532;49.300;6.846;2024-03-08T06:12:25;21.00;46.20
35495;DHT22;75532;49.300;6.846;2024-03-08T06:15:29;21.00;46.40
35495;DHT22;75532;49.300;6.846;2024-03-08T06:18:30;21.00;46.60
35495;DHT22;75532;49.300;6.846;2024-03-08T06:21:31;21.00;46.70
35495;DHT22;75532;49.300;6.846;2024-03-08T06:24:32;21.00;46.80
35495;DHT22;75532;49.300;6.846;2024-03-08T06:27:33;21.00;46.90
35495;DHT22;75532;49.300;6.846;2024-03-08T06:30:34;21.00;46.90
35495;DHT22;75532;49.300;6.846;2024-03-08T06:33:35;21.10;46.90
35495;DHT22;75532;49.300;6.846;2024-03-08T06:36:35;21.00;46.90
35495;DHT22;75532;49.300;6.846;2024-03-08T06:39:38;21.00;46.90
35495;DHT22;75532;49.300;6.846;2024-03-08T06:42:40;21.00;47.00
35495;DHT22;75532;49.300;6.846;2024-03-08T06:45:42;21.00;46.90
35495;DHT22;75532;49.300;6.846;2024-03-08T06:48:48;21.00;47.10
35495;DHT22;75532;49.300;6.846;2024-03-08T06:51:49;21.00;47.10
35495;DHT22;75532;49.300;6.846;2024-03-08T06:54:50;21.00;47.20
35495;DHT22;75532;49.300;6.846;2024-03-08T06:57:52;21.00;47.20
35495;DHT22;75532;49.300;6.846;2024-03-08T07:00:53;21.00;47.10
35495;DHT22;75532;49.300;6.846;2024-03-08T07:03:54;21.00;47.00
35495;DHT22;75532;49.300;6.846;2024-03-08T07:06:57;21.00;47.10
35495;DHT22;75532;49.300;6.846;2024-03-08T07:09:57;21.00;47.60
35495;DHT22;75532;49.300;6.846;2024-03-08T07:12:58;21.00;43.50
35495;DHT22;75532;49.300;6.846;2024-03-08T07:16:01;20.80;41.30
35495;DHT22;75532;49.300;6.846;2024-03-08T07:19:02;20.80;42.50
35495;DHT22;75532;49.300;6.846;2024-03-08T07:22:03;20.80;44.40
35495;DHT22;75532;49.300;6.846;2024-03-08T07:25:08;20.90;45.50
35495;DHT22;75532;49.300;6.846;2024-03-08T07:28:21;20.90;45.80
35495;DHT22;75532;49.300;6.846;2024-03-08T07:31:21;20.90;45.90
35495;DHT22;75532;49.300;6.846;2024-03-08T07:34:40;21.00;46.00
35495;DHT22;75532;49.300;6.846;2024-03-08T07:37:41;21.00;46.20
35495;DHT22;75532;49.300;6.846;2024-03-08T07:40:42;21.10;46.40
35495;DHT22;75532;49.300;6.846;2024-03-08T07:43:45;21.10;46.40
35495;DHT22;75532;49.300;6.846;2024-03-08T07:46:49;21.10;46.40
35495;DHT22;75532;49.300;6.846;2024-03-08T07:49:52;21.10;46.50
35495;DHT22;75532;49.300;6.846;2024-03-08T07:52:54;21.10;46.60
35495;DHT22;75532;49.300;6.846;2024-03-08T07:55:55;21.10;46.70
35495;DHT22;75532;49.300;6.846;2024-03-08T07:58:55;21.10;46.70
35495;DHT22;75532;49.300;6.846;2024-03-08T08:01:56;21.10;46.70
35495;DHT22;75532;49.300;6.846;2024-03-08T08:04:57;21.10;46.70
35495;DHT22;75532;49.300;6.846;2024-03-08T08:07:59;21.10;46.80
35495;DHT22;75532;49.300;6.846;2024-03-08T08:11:00;21.10;46.70
35495;DHT22;75532;49.300;6.846;2024-03-08T08:14:01;21.10;46.70
35495;DHT22;75532;49.300;6.846;2024-03-08T08:17:02;21.10;46.70
35495;DHT22;75532;49.300;6.846;2024-03-08T08:20:05;21.10;46.70
35495;DHT22;75532;49.300;6.846;2024-03-08T08:23:06;21.10;46.70
35495;DHT22;75532;49.300;6.846;2024-03-08T08:26:06;21.10;46.70
35495;DHT22;75532;49.300;6.846;2024-03-08T08:29:08;21.10;46.90
35495;DHT22;75532;49.300;6.846;2024-03-08T08:32:08;21.10;46.40
35495;DHT22;75532;49.300;6.846;2024-03-08T08:35:10;21.10;46.20
35495;DHT22;75532;49.300;6.846;2024-03-08T08:38:13;21.10;46.30
35495;DHT22;75532;49.300;6.846;2024-03-08T08:41:16;21.00;46.40
35495;DHT22;75532;49.300;6.846;2024-03-08T08:44:17;21.10;46.60
35495;DHT22;75532;49.300;6.846;2024-03-08T08:47:18;21.10;46.70
35495;DHT22;75532;49.300;6.846;2024-03-08T08:50:19;21.10;46.70
35495;DHT22;75532;49.300;6.846;2024-03-08T08:53:26;21.10;46.70
35495;DHT22;75532;49.300;6.846;2024-03-08T08:56:26;21.10;47.00
35495;DHT22;75532;49.300;6.846;2024-03-08T08:59:27;21.10;46.90
35495;DHT22;75532;49.300;6.846;2024-03-08T09:02:27;21.10;47.10
35495;DHT22;75532;49.300;6.846;2024-03-08T09:05:28;21.10;47.00
35495;DHT22;75532;49.300;6.846;2024-03-08T09:08:28;21.10;47.00
35495;DHT22;75532;49.300;6.846;2024-03-08T09:11:29;21.10;47.00
35495;DHT22;75532;49.300;6.846;2024-03-08T09:14:30;21.10;47.00
35495;DHT22;75532;49.300;6.846;2024-03-08T09:17:30;21.10;47.10
35495;DHT22;75532;49.300;6.846;2024-03-08T09:20:32;21.10;47.20
35495;DHT22;75532;49.300;6.846;2024-03-08T09:23:32;21.10;47.10
35495;DHT22;75532;49.300;6.846;2024-03-08T09:26:33;21.10;47.20
35495;DHT22;75532;49.300;6.846;2024-03-08T09:29:33;21.10;47.20
35495;DHT22;75532;49.300;6.846;2024-03-08T09:32:34;21.10;47.30
35495;DHT22;75532;49.300;6.846;2024-03-08T09:35:35;21.10;47.30
35495;DHT22;75532;49.300;6.846;2024-03-08T09:38:36;21.10;47.40
35495;DHT22;75532;49.300;6.846;2024-03-08T09:41:39;21.20;47.30
35495;DHT22;75532;49.300;6.846;2024-03-08T09:44:44;21.30;47.30
35495;DHT22;75532;49.300;6.846;2024-03-08T09:47:44;21.30;47.20
35495;DHT22;75532;49.300;6.846;2024-03-08T09:50:46;21.30;47.10
35495;DHT22;75532;49.300;6.846;2024-03-08T09:53:46;21.30;47.20
35495;DHT22;75532;49.300;6.846;2024-03-08T09:56:48;21.30;47.20
35495;DHT22;75532;49.300;6.846;2024-03-08T09:59:51;21.30;47.20
35495;DHT22;75532;49.300;6.846;2024-03-08T10:02:51;21.30;47.20
35495;DHT22;75532;49.300;6.846;2024-03-08T10:05:56;21.20;47.30
35495;DHT22;75532;49.300;6.846;2024-03-08T10:09:00;21.20;47.30
35495;DHT22;75532;49.300;6.846;2024-03-08T10:12:01;21.20;47.50
35495;DHT22;75532;49.300;6.846;2024-03-08T10:15:02;21.20;47.40
35495;DHT22;75532;49.300;6.846;2024-03-08T10:18:03;21.20;47.40
35495;DHT22;75532;49.300;6.846;2024-03-08T10:21:06;21.20;47.50
35495;DHT22;75532;49.300;6.846;2024-03-08T10:24:10;21.20;47.50
35495;DHT22;75532;49.300;6.846;2024-03-08T10:27:11;21.20;48.10
35495;DHT22;75532;49.300;6.846;2024-03-08T10:30:15;21.20;47.40
35495;DHT22;75532;49.300;6.846;2024-03-08T10:33:20;21.20;47.50
35495;DHT22;75532;49.300;6.846;2024-03-08T10:36:20;21.20;47.50
35495;DHT22;75532;49.300;6.846;2024-03-08T10:39:22;21.20;47.50
35495;DHT22;75532;49.300;6.846;2024-03-08T10:42:28;21.20;47.50
35495;DHT22;75532;49.300;6.846;2024-03-08T10:45:36;21.20;47.50
35495;DHT22;75532;49.300;6.846;2024-03-08T10:48:43;21.20;47.50
35495;DHT22;75532;49.300;6.846;2024-03-08T10:51:45;21.30;47.50
35495;DHT22;75532;49.300;6.846;2024-03-08T10:54:48;21.30;47.50
35495;DHT22;75532;49.300;6.846;2024-03-08T10:57:52;21.30;47.40
35495;DHT22;75532;49.300;6.846;2024-03-08T11:00:57;21.30;47.40
35495;DHT22;75532;49.300;6.846;2024-03-08T11:03:58;21.30;47.30
35495;DHT22;75532;49.300;6.846;2024-03-08T11:07:05;21.30;47.40
35495;DHT22;75532;49.300;6.846;2024-03-08T11:10:17;21.30;47.30
35495;DHT22;75532;49.300;6.846;2024-03-08T11:13:39;21.30;47.40
35495;DHT22;75532;49.300;6.846;2024-03-08T11:16:43;21.40;47.30
35495;DHT22;75532;49.300;6.846;2024-03-08T11:19:49;21.30;47.30
35495;DHT22;75532;49.300;6.846;2024-03-08T11:22:54;21.40;47.40
35495;DHT22;75532;49.300;6.846;2024-03-08T11:25:55;21.30;47.30
35495;DHT22;75532;49.300;6.846;2024-03-08T11:28:55;21.40;47.30
35495;DHT22;75532;49.300;6.846;2024-03-08T11:32:17;21.40;47.30
35495;DHT22;75532;49.300;6.846;2024-03-08T11:35:22;21.40;47.30
35495;DHT22;75532;49.300;6.846;2024-03-08T11:38:25;21.40;47.30
35495;DHT22;75532;49.300;6.846;2024-03-08T11:41:26;21.40;47.20
35495;DHT22;75532;49.300;6.846;2024-03-08T11:44:27;21.40;47.30
35495;DHT22;75532;49.300;6.846;2024-03-08T11:47:32;21.40;47.30
35495;DHT22;75532;49.300;6.846;2024-03-08T11:50:32;21.40;47.20
35495;DHT22;75532;49.300;6.846;2024-03-08T11:53:33;21.40;47.20
35495;DHT22;75532;49.300;6.846;2024-03-08T11:56:34;21.40;47.80
35495;DHT22;75532;49.300;6.846;2024-03-08T11:59:34;21.40;47.30
35495;DHT22;75532;49.300;6.846;2024-03-08T12:02:35;21.40;47.30
35495;DHT22;75532;49.300;6.846;2024-03-08T12:05:38;21.40;47.30
35495;DHT22;75532;49.300;6.846;2024-03-08T12:08:38;21.40;47.30
35495;DHT22;75532;49.300;6.846;2024-03-08T12:11:39;21.40;47.30
35495;DHT22;75532;49.300;6.846;2024-03-08T12:14:43;21.40;47.30
35495;DHT22;75532;49.300;6.846;2024-03-08T12:17:50;21.40;47.30
35495;DHT22;75532;49.300;6.846;2024-03-08T12:20:51;21.50;47.30
35495;DHT22;75532;49.300;6.846;2024-03-08T12:24:08;21.50;47.40
35495;DHT22;75532;49.300;6.846;2024-03-08T12:27:19;21.50;47.40
35495;DHT22;75532;49.300;6.846;2024-03-08T12:30:27;21.50;47.40
35495;DHT22;75532;49.300;6.846;2024-03-08T12:33:27;21.50;47.40
35495;DHT22;75532;49.300;6.846;2024-03-08T12:36:28;21.50;47.50
35495;DHT22;75532;49.300;6.846;2024-03-08T12:39:30;21.50;47.40
35495;DHT22;75532;49.300;6.846;2024-03-08T12:42:30;21.50;47.50
35495;DHT22;75532;49.300;6.846;2024-03-08T12:45:32;21.50;47.50
35495;DHT22;75532;49.300;6.846;2024-03-08T12:48:36;21.50;47.40
35495;DHT22;75532;49.300;6.846;2024-03-08T12:51:40;21.50;47.40
35495;DHT22;75532;49.300;6.846;2024-03-08T12:54:42;21.60;48.00
35495;DHT22;75532;49.300;6.846;2024-03-08T12:57:43;21.60;48.10
35495;DHT22;75532;49.300;6.846;2024-03-08T13:00:43;21.60;47.60
35495;DHT22;75532;49.300;6.846;2024-03-08T13:03:44;21.60;47.70
35495;DHT22;75532;49.300;6.846;2024-03-08T13:06:45;21.60;47.70
35495;DHT22;75532;49.300;6.846;2024-03-08T13:09:47;21.60;47.80
35495;DHT22;75532;49.300;6.846;2024-03-08T13:12:47;21.50;47.70
35495;DHT22;75532;49.300;6.846;2024-03-08T13:15:48;21.60;47.90
35495;DHT22;75532;49.300;6.846;2024-03-08T13:18:49;21.50;47.80
35495;DHT22;75532;49.300;6.846;2024-03-08T13:21:50;21.50;47.80
35495;DHT22;75532;49.300;6.846;2024-03-08T13:24:51;21.50;48.00
35495;DHT22;75532;49.300;6.846;2024-03-08T13:27:52;21.50;48.10
35495;DHT22;75532;49.300;6.846;2024-03-08T13:30:56;21.50;48.10
35495;DHT22;75532;49.300;6.846;2024-03-08T13:33:58;21.50;47.90
35495;DHT22;75532;49.300;6.846;2024-03-08T13:37:01;21.50;47.90
35495;DHT22;75532;49.300;6.846;2024-03-08T13:40:04;21.60;48.00
35495;DHT22;75532;49.300;6.846;2024-03-08T13:43:06;21.60;48.10
35495;DHT22;75532;49.300;6.846;2024-03-08T13:46:10;21.60;48.10
35495;DHT22;75532;49.300;6.846;2024-03-08T13:49:10;21.60;48.30
35495;DHT22;75532;49.300;6.846;2024-03-08T13:52:11;21.60;48.20
35495;DHT22;75532;49.300;6.846;2024-03-08T13:55:15;21.60;48.20
35495;DHT22;75532;49.300;6.846;2024-03-08T13:58:16;21.60;48.20
35495;DHT22;75532;49.300;6.846;2024-03-08T14:01:16;21.60;48.10
35495;DHT22;75532;49.300;6.846;2024-03-08T14:04:17;21.60;48.20
35495;DHT22;75532;49.300;6.846;2024-03-08T14:07:17;21.60;48.30
35495;DHT22;75532;49.300;6.846;2024-03-08T14:10:18;21.60;48.60
35495;DHT22;75532;49.300;6.846;2024-03-08T14:13:23;21.60;48.50
35495;DHT22;75532;49.300;6.846;2024-03-08T14:16:25;21.60;48.50
35495;DHT22;75532;49.300;6.846;2024-03-08T14:19:26;21.70;48.40
35495;DHT22;75532;49.300;6.846;2024-03-08T14:22:27;21.70;48.50
35495;DHT22;75532;49.300;6.846;2024-03-08T14:25:27;21.70;48.70
35495;DHT22;75532;49.300;6.846;2024-03-08T14:28:33;21.70;48.80
35495;DHT22;75532;49.300;6.846;2024-03-08T14:31:33;21.70;48.70
35495;DHT22;75532;49.300;6.846;2024-03-08T14:34:34;21.70;48.80
35495;DHT22;75532;49.300;6.846;2024-03-08T14:37:35;21.70;49.00
35495;DHT22;75532;49.300;6.846;2024-03-08T14:40:36;21.70;48.80
35495;DHT22;75532;49.300;6.846;2024-03-08T14:43:37;21.80;48.80
35495;DHT22;75532;49.300;6.846;2024-03-08T14:46:37;21.70;48.60
35495;DHT22;75532;49.300;6.846;2024-03-08T14:49:39;21.80;48.80
35495;DHT22;75532;49.300;6.846;2024-03-08T14:52:40;21.80;48.70
35495;DHT22;75532;49.300;6.846;2024-03-08T14:55:40;21.80;48.80
35495;DHT22;75532;49.300;6.846;2024-03-08T14:58:42;21.80;48.70
35495;DHT22;75532;49.300;6.846;2024-03-08T15:01:44;21.80;48.80
35495;DHT22;75532;49.300;6.846;2024-03-08T15:04:47;21.80;48.70
35495;DHT22;75532;49.300;6.846;2024-03-08T15:07:57;21.80;48.80
35495;DHT22;75532;49.300;6.846;2024-03-08T15:10:57;21.80;48.70
35495;DHT22;75532;49.300;6.846;2024-03-08T15:13:59;21.80;48.70
35495;DHT22;75532;49.300;6.846;2024-03-08T15:17:01;21.80;48.60
35495;DHT22;75532;49.300;6.846;2024-03-08T15:20:07;21.80;48.50
35495;DHT22;75532;49.300;6.846;2024-03-08T15:23:16;21.80;48.50
35495;DHT22;75532;49.300;6.846;2024-03-08T15:26:17;21.80;48.40
35495;DHT22;75532;49.300;6.846;2024-03-08T15:29:18;21.80;48.40
35495;DHT22;75532;49.300;6.846;2024-03-08T15:32:26;21.80;48.40
35495;DHT22;75532;49.300;6.846;2024-03-08T15:35:28;21.80;48.30
35495;DHT22;75532;49.300;6.846;2024-03-08T15:38:28;21.80;48.30
35495;DHT22;75532;49.300;6.846;2024-03-08T15:41:29;21.80;48.20
35495;DHT22;75532;49.300;6.846;2024-03-08T15:44:30;21.80;48.30
35495;DHT22;75532;49.300;6.846;2024-03-08T15:47:30;21.80;48.20
35495;DHT22;75532;49.300;6.846;2024-03-08T15:50:31;21.80;48.20
35495;DHT22;75532;49.300;6.846;2024-03-08T15:53:33;21.80;48.20
35495;DHT22;75532;49.300;6.846;2024-03-08T15:56:35;21.80;48.10
35495;DHT22;75532;49.300;6.846;2024-03-08T15:59:36;21.80;48.20
35495;DHT22;75532;49.300;6.846;2024-03-08T16:02:39;21.80;48.10
35495;DHT22;75532;49.300;6.846;2024-03-08T16:05:42;21.80;48.10
35495;DHT22;75532;49.300;6.846;2024-03-08T16:08:44;21.80;48.00
35495;DHT22;75532;49.300;6.846;2024-03-08T16:11:45;21.80;47.90
35495;DHT22;75532;49.300;6.846;2024-03-08T16:14:45;21.80;48.00
35495;DHT22;75532;49.300;6.846;2024-03-08T16:17:47;21.70;47.80
35495;DHT22;75532;49.300;6.846;2024-03-08T16:20:49;21.70;48.10
35495;DHT22;75532;49.300;6.846;2024-03-08T16:23:50;21.70;47.90
35495;DHT22;75532;49.300;6.846;2024-03-08T16:26:52;21.70;47.70
35495;DHT22;75532;49.300;6.846;2024-03-08T16:29:52;21.70;47.50
35495;DHT22;75532;49.300;6.846;2024-03-08T16:32:53;21.70;47.70
35495;DHT22;75532;49.300;6.846;2024-03-08T16:35:53;21.70;47.70
35495;DHT22;75532;49.300;6.846;2024-03-08T16:38:54;21.70;47.70
35495;DHT22;75532;49.300;6.846;2024-03-08T16:41:55;21.70;47.80
35495;DHT22;75532;49.300;6.846;2024-03-08T16:44:57;21.70;47.60
35495;DHT22;75532;49.300;6.846;2024-03-08T16:47:57;21.70;47.70
35495;DHT22;75532;49.300;6.846;2024-03-08T16:51:02;21.70;47.40
35495;DHT22;75532;49.300;6.846;2024-03-08T16:54:02;21.70;47.60
35495;DHT22;75532;49.300;6.846;2024-03-08T16:57:03;21.70;47.60
35495;DHT22;75532;49.300;6.846;2024-03-08T17:00:06;21.60;47.40
35495;DHT22;75532;49.300;6.846;2024-03-08T17:03:14;21.60;47.30
35495;DHT22;75532;49.300;6.846;2024-03-08T17:06:14;21.60;47.50
35495;DHT22;75532;49.300;6.846;2024-03-08T17:09:15;21.60;47.30
35495;DHT22;75532;49.300;6.846;2024-03-08T17:12:18;21.60;47.40
35495;DHT22;75532;49.300;6.846;2024-03-08T17:15:21;21.60;47.40
35495;DHT22;75532;49.300;6.846;2024-03-08T17:18:24;21.60;47.30
35495;DHT22;75532;49.300;6.846;2024-03-08T17:21:26;21.60;47.40
35495;DHT22;75532;49.300;6.846;2024-03-08T17:24:27;21.60;47.30
35495;DHT22;75532;49.300;6.846;2024-03-08T17:27:28;21.60;47.70
35495;DHT22;75532;49.300;6.846;2024-03-08T17:30:30;21.60;47.60
35495;DHT22;75532;49.300;6.846;2024-03-08T17:33:32;21.60;47.70
35495;DHT22;75532;49.300;6.846;2024-03-08T17:36:35;21.60;48.00
35495;DHT22;75532;49.300;6.846;2024-03-08T17:39:37;21.60;48.20
35495;DHT22;75532;49.300;6.846;2024-03-08T17:42:38;21.60;48.00
35495;DHT22;75532;49.300;6.846;2024-03-08T17:45:40;21.60;47.90
35495;DHT22;75532;49.300;6.846;2024-03-08T17:48:41;21.60;47.90
35495;DHT22;75532;49.300;6.846;2024-03-08T17:51:42;21.60;47.80
35495;DHT22;75532;49.300;6.846;2024-03-08T17:54:43;21.60;47.80
35495;DHT22;75532;49.300;6.846;2024-03-08T17:57:44;21.60;47.80
35495;DHT22;75532;49.300;6.846;2024-03-08T18:00:45;21.60;48.00
35495;DHT22;75532;49.300;6.846;2024-03-08T18:03:46;21.60;47.80
35495;DHT22;75532;49.300;6.846;2024-03-08T18:06:48;21.50;47.60
35495;DHT22;75532;49.300;6.846;2024-03-08T18:09:48;21.60;47.70
35495;DHT22;75532;49.300;6.846;2024-03-08T18:12:51;21.60;47.50
35495;DHT22;75532;49.300;6.846;2024-03-08T18:15:52;21.60;47.70
35495;DHT22;75532;49.300;6.846;2024-03-08T18:18:53;21.60;47.60
35495;DHT22;75532;49.300;6.846;2024-03-08T18:21:54;21.50;47.40
35495;DHT22;75532;49.300;6.846;2024-03-08T18:24:55;21.60;47.50
35495;DHT22;75532;49.300;6.846;2024-03-08T18:27:57;21.60;47.60
35495;DHT22;75532;49.300;6.846;2024-03-08T18:30:59;21.50;47.50
35495;DHT22;75532;49.300;6.846;2024-03-08T18:34:01;21.50;47.70
35495;DHT22;75532;49.300;6.846;2024-03-08T18:37:01;21.50;47.50
35495;DHT22;75532;49.300;6.846;2024-03-08T18:40:04;21.50;47.50
35495;DHT22;75532;49.300;6.846;2024-03-08T18:43:05;21.50;47.40
35495;DHT22;75532;49.300;6.846;2024-03-08T18:46:06;21.50;47.60
35495;DHT22;75532;49.300;6.846;2024-03-08T18:49:07;21.50;47.30
35495;DHT22;75532;49.300;6.846;2024-03-08T18:52:07;21.50;47.40
35495;DHT22;75532;49.300;6.846;2024-03-08T18:55:10;21.50;47.30
35495;DHT22;75532;49.300;6.846;2024-03-08T18:58:11;21.50;47.50
35495;DHT22;75532;49.300;6.846;2024-03-08T19:01:12;21.50;47.40
35495;DHT22;75532;49.300;6.846;2024-03-08T19:04:13;21.50;47.30
35495;DHT22;75532;49.300;6.846;2024-03-08T19:07:15;21.50;47.40